sensor_id;sensor_type;location;lat;lon;timestamp;P1;durP1;ratioP1;P2;durP2;ratioP2
39918;SDS011;25589;51.552;13.424;2023-02-21T00:02:37;4.15;;;3.00;;
39918;SDS011;25589;51.552;13.424;2023-02-21T00:05:21;4.03;;;2.90;;
39918;SDS011;25589;51.552;13.424;2023-02-21T00:08:05;6.05;;;3.53;;
39918;SDS011;25589;51.552;13.424;2023-02-21T00:10:50;6.07;;;3.60;;
39918;SDS011;25589;51.552;13.424;2023-02-21T00:13:34;5.53;;;3.67;;
39918;SDS011;25589;51.552;13.424;2023-02-21T00:16:19;8.82;;;4.10;;
39918;SDS011;25589;51.552;13.424;2023-02-21T00:19:03;6.95;;;3.10;;
39918;SDS011;25589;51.552;13.424;2023-02-21T00:21:48;5.45;;;3.47;;
39918;SDS011;25589;51.552;13.424;2023-02-21T00:24:32;5.28;;;3.88;;
39918;SDS011;25589;51.552;13.424;2023-02-21T00:27:16;4.60;;;3.22;;
39918;SDS011;25589;51.552;13.424;2023-02-21T00:30:01;5.63;;;3.25;;
39918;SDS011;25589;51.552;13.424;2023-02-21T00:32:47;4.43;;;3.13;;
39918;SDS011;25589;51.552;13.424;2023-02-21T00:35:31;6.65;;;3.58;;
39918;SDS011;25589;51.552;13.424;2023-02-21T00:38:16;6.38;;;3.72;;
39918;SDS011;25589;51.552;13.424;2023-02-21T00:41:00;4.57;;;3.20;;
39918;SDS011;25589;51.552;13.424;2023-02-21T00:43:44;5.47;;;2.70;;
39918;SDS011;25589;51.552;13.424;2023-02-21T00:46:28;5.32;;;3.50;;
39918;SDS011;25589;51.552;13.424;2023-02-21T00:49:13;7.75;;;4.22;;
39918;SDS011;25589;51.552;13.424;2023-02-21T00:51:57;4.25;;;2.95;;
39918;SDS011;25589;51.552;13.424;2023-02-21T00:54:41;6.85;;;3.70;;
39918;SDS011;25589;51.552;13.424;2023-02-21T00:57:25;6.15;;;3.88;;
39918;SDS011;25589;51.552;13.424;2023-02-21T01:00:15;6.82;;;3.95;;
39918;SDS011;25589;51.552;13.424;2023-02-21T01:03:01;7.70;;;4.13;;
39918;SDS011;25589;51.552;13.424;2023-02-21T01:05:46;6.15;;;3.67;;
39918;SDS011;25589;51.552;13.424;2023-02-21T01:08:30;7.18;;;3.97;;
39918;SDS011;25589;51.552;13.424;2023-02-21T01:11:15;7.45;;;4.25;;
39918;SDS011;25589;51.552;13.424;2023-02-21T01:14:00;6.82;;;4.10;;
39918;SDS011;25589;51.552;13.424;2023-02-21T01:16:44;8.15;;;4.20;;
39918;SDS011;25589;51.552;13.424;2023-02-21T01:19:28;6.88;;;4.18;;
39918;SDS011;25589;51.552;13.424;2023-02-21T01:22:12;5.57;;;3.90;;
39918;SDS011;25589;51.552;13.424;2023-02-21T01:24:57;6.07;;;3.35;;
39918;SDS011;25589;51.552;13.424;2023-02-21T01:27:41;6.93;;;4.20;;
39918;SDS011;25589;51.552;13.424;2023-02-21T01:30:25;9.40;;;4.53;;
39918;SDS011;25589;51.552;13.424;2023-02-21T01:33:10;7.53;;;4.43;;
39918;SDS011;25589;51.552;13.424;2023-02-21T01:35:55;8.02;;;4.20;;
39918;SDS011;25589;51.552;13.424;2023-02-21T01:38:39;8.15;;;4.90;;
39918;SDS011;25589;51.552;13.424;2023-02-21T01:41:23;10.30;;;4.93;;
39918;SDS011;25589;51.552;13.424;2023-02-21T01:47:23;9.38;;;4.78;;
39918;SDS011;25589;51.552;13.424;2023-02-21T01:50:10;9.25;;;4.80;;
39918;SDS011;25589;51.552;13.424;2023-02-21T01:53:02;8.73;;;4.82;;
39918;SDS011;25589;51.552;13.424;2023-02-21T01:55:49;7.45;;;4.88;;
39918;SDS011;25589;51.552;13.424;2023-02-21T01:58:34;9.20;;;5.43;;
39918;SDS011;25589;51.552;13.424;2023-02-21T02:01:26;8.65;;;5.22;;
39918;SDS011;25589;51.552;13.424;2023-02-21T02:04:16;8.73;;;5.38;;
39918;SDS011;25589;51.552;13.424;2023-02-21T02:07:00;8.27;;;5.20;;
39918;SDS011;25589;51.552;13.424;2023-02-21T02:09:45;9.20;;;5.05;;
39918;SDS011;25589;51.552;13.424;2023-02-21T02:12:49;9.43;;;4.88;;
39918;SDS011;25589;51.552;13.424;2023-02-21T02:15:42;9.48;;;5.45;;
39918;SDS011;25589;51.552;13.424;2023-02-21T02:18:16;10.23;;;5.40;;
39918;SDS011;25589;51.552;13.424;2023-02-21T02:37:21;11.38;;;6.18;;
39918;SDS011;25589;51.552;13.424;2023-02-21T02:45:29;11.60;;;5.85;;
39918;SDS011;25589;51.552;13.424;2023-02-21T02:48:02;8.52;;;5.35;;
39918;SDS011;25589;51.552;13.424;2023-02-21T02:50:34;8.95;;;5.22;;
39918;SDS011;25589;51.552;13.424;2023-02-21T02:53:02;8.60;;;5.15;;
39918;SDS011;25589;51.552;13.424;2023-02-21T02:55:31;7.63;;;5.20;;
39918;SDS011;25589;51.552;13.424;2023-02-21T02:58:05;8.65;;;5.03;;
39918;SDS011;25589;51.552;13.424;2023-02-21T03:00:34;7.93;;;4.93;;
39918;SDS011;25589;51.552;13.424;2023-02-21T03:03:15;8.35;;;5.18;;
39918;SDS011;25589;51.552;13.424;2023-02-21T03:06:08;7.95;;;4.68;;
39918;SDS011;25589;51.552;13.424;2023-02-21T03:08:40;10.43;;;5.43;;
39918;SDS011;25589;51.552;13.424;2023-02-21T03:11:21;9.13;;;5.05;;
39918;SDS011;25589;51.552;13.424;2023-02-21T03:13:56;9.93;;;5.47;;
39918;SDS011;25589;51.552;13.424;2023-02-21T03:16:35;9.10;;;5.63;;
39918;SDS011;25589;51.552;13.424;2023-02-21T03:19:07;9.93;;;5.75;;
39918;SDS011;25589;51.552;13.424;2023-02-21T03:21:48;7.72;;;4.70;;
39918;SDS011;25589;51.552;13.424;2023-02-21T03:24:18;10.63;;;5.65;;
39918;SDS011;25589;51.552;13.424;2023-02-21T03:26:46;10.57;;;5.40;;
39918;SDS011;25589;51.552;13.424;2023-02-21T03:29:40;10.55;;;5.32;;
39918;SDS011;25589;51.552;13.424;2023-02-21T03:32:08;9.32;;;5.53;;
39918;SDS011;25589;51.552;13.424;2023-02-21T03:34:40;7.35;;;5.18;;
39918;SDS011;25589;51.552;13.424;2023-02-21T03:37:17;7.90;;;5.05;;
39918;SDS011;25589;51.552;13.424;2023-02-21T03:39:45;8.27;;;5.40;;
39918;SDS011;25589;51.552;13.424;2023-02-21T03:42:11;10.38;;;5.80;;
39918;SDS011;25589;51.552;13.424;2023-02-21T03:44:37;10.35;;;5.53;;
39918;SDS011;25589;51.552;13.424;2023-02-21T03:47:03;10.27;;;5.13;;
39918;SDS011;25589;51.552;13.424;2023-02-21T03:49:29;8.32;;;5.22;;
39918;SDS011;25589;51.552;13.424;2023-02-21T03:51:54;8.68;;;5.68;;
39918;SDS011;25589;51.552;13.424;2023-02-21T03:54:20;8.75;;;5.28;;
39918;SDS011;25589;51.552;13.424;2023-02-21T03:56:49;10.77;;;5.05;;
39918;SDS011;25589;51.552;13.424;2023-02-21T03:59:21;10.90;;;6.28;;
39918;SDS011;25589;51.552;13.424;2023-02-21T04:01:46;6.95;;;4.93;;
39918;SDS011;25589;51.552;13.424;2023-02-21T04:04:13;9.07;;;6.20;;
39918;SDS011;25589;51.552;13.424;2023-02-21T04:06:40;8.18;;;5.30;;
39918;SDS011;25589;51.552;13.424;2023-02-21T04:09:06;8.00;;;5.00;;
39918;SDS011;25589;51.552;13.424;2023-02-21T04:11:31;8.77;;;5.57;;
39918;SDS011;25589;51.552;13.424;2023-02-21T04:13:57;8.55;;;5.55;;
39918;SDS011;25589;51.552;13.424;2023-02-21T04:16:23;8.77;;;4.80;;
39918;SDS011;25589;51.552;13.424;2023-02-21T04:18:51;9.52;;;5.72;;
39918;SDS011;25589;51.552;13.424;2023-02-21T04:21:18;11.32;;;6.68;;
39918;SDS011;25589;51.552;13.424;2023-02-21T04:23:44;8.68;;;5.65;;
39918;SDS011;25589;51.552;13.424;2023-02-21T04:26:10;11.15;;;5.60;;
39918;SDS011;25589;51.552;13.424;2023-02-21T04:28:44;9.85;;;5.97;;
39918;SDS011;25589;51.552;13.424;2023-02-21T04:31:09;9.63;;;5.65;;
39918;SDS011;25589;51.552;13.424;2023-02-21T04:33:36;10.55;;;6.05;;
39918;SDS011;25589;51.552;13.424;2023-02-21T04:36:02;10.80;;;6.63;;
39918;SDS011;25589;51.552;13.424;2023-02-21T04:38:35;14.93;;;7.13;;
39918;SDS011;25589;51.552;13.424;2023-02-21T04:41:04;12.85;;;6.80;;
39918;SDS011;25589;51.552;13.424;2023-02-21T04:43:30;10.45;;;6.10;;
39918;SDS011;25589;51.552;13.424;2023-02-21T04:45:56;13.73;;;7.35;;
39918;SDS011;25589;51.552;13.424;2023-02-21T04:48:23;12.45;;;7.47;;
39918;SDS011;25589;51.552;13.424;2023-02-21T04:50:49;12.35;;;7.65;;
39918;SDS011;25589;51.552;13.424;2023-02-21T04:53:14;10.95;;;6.72;;
39918;SDS011;25589;51.552;13.424;2023-02-21T04:55:40;11.85;;;7.03;;
39918;SDS011;25589;51.552;13.424;2023-02-21T04:58:05;12.27;;;7.45;;
39918;SDS011;25589;51.552;13.424;2023-02-21T05:00:31;15.02;;;7.32;;
39918;SDS011;25589;51.552;13.424;2023-02-21T05:02:57;14.25;;;7.25;;
39918;SDS011;25589;51.552;13.424;2023-02-21T05:05:22;12.57;;;7.22;;
39918;SDS011;25589;51.552;13.424;2023-02-21T05:07:48;16.02;;;8.52;;
39918;SDS011;25589;51.552;13.424;2023-02-21T05:10:15;16.05;;;8.30;;
39918;SDS011;25589;51.552;13.424;2023-02-21T05:12:41;15.30;;;8.43;;
39918;SDS011;25589;51.552;13.424;2023-02-21T05:15:07;14.27;;;7.55;;
39918;SDS011;25589;51.552;13.424;2023-02-21T05:17:33;15.35;;;8.52;;
39918;SDS011;25589;51.552;13.424;2023-02-21T05:19:59;14.30;;;8.48;;
39918;SDS011;25589;51.552;13.424;2023-02-21T05:22:25;14.18;;;8.13;;
39918;SDS011;25589;51.552;13.424;2023-02-21T05:24:51;15.02;;;8.93;;
39918;SDS011;25589;51.552;13.424;2023-02-21T05:27:17;15.45;;;8.50;;
39918;SDS011;25589;51.552;13.424;2023-02-21T05:29:47;16.00;;;9.27;;
39918;SDS011;25589;51.552;13.424;2023-02-21T05:32:14;16.02;;;9.07;;
39918;SDS011;25589;51.552;13.424;2023-02-21T05:34:40;17.17;;;10.27;;
39918;SDS011;25589;51.552;13.424;2023-02-21T05:37:09;14.60;;;9.18;;
39918;SDS011;25589;51.552;13.424;2023-02-21T05:39:35;15.60;;;8.98;;
39918;SDS011;25589;51.552;13.424;2023-02-21T05:42:01;15.68;;;8.30;;
39918;SDS011;25589;51.552;13.424;2023-02-21T05:44:26;17.02;;;9.18;;
39918;SDS011;25589;51.552;13.424;2023-02-21T05:46:52;16.08;;;8.55;;
39918;SDS011;25589;51.552;13.424;2023-02-21T05:49:18;15.95;;;8.48;;
39918;SDS011;25589;51.552;13.424;2023-02-21T05:51:43;14.95;;;9.15;;
39918;SDS011;25589;51.552;13.424;2023-02-21T05:54:12;16.40;;;9.27;;
39918;SDS011;25589;51.552;13.424;2023-02-21T05:56:40;17.02;;;9.35;;
39918;SDS011;25589;51.552;13.424;2023-02-21T05:59:07;15.48;;;8.75;;
39918;SDS011;25589;51.552;13.424;2023-02-21T06:01:33;13.88;;;8.50;;
39918;SDS011;25589;51.552;13.424;2023-02-21T06:03:59;16.63;;;8.35;;
39918;SDS011;25589;51.552;13.424;2023-02-21T06:06:24;16.55;;;9.98;;
39918;SDS011;25589;51.552;13.424;2023-02-21T06:08:50;17.30;;;9.80;;
39918;SDS011;25589;51.552;13.424;2023-02-21T06:11:23;17.10;;;8.77;;
39918;SDS011;25589;51.552;13.424;2023-02-21T06:13:51;15.68;;;9.57;;
39918;SDS011;25589;51.552;13.424;2023-02-21T06:16:18;17.33;;;9.52;;
39918;SDS011;25589;51.552;13.424;2023-02-21T06:18:44;17.00;;;9.18;;
39918;SDS011;25589;51.552;13.424;2023-02-21T06:21:13;19.60;;;9.20;;
39918;SDS011;25589;51.552;13.424;2023-02-21T06:23:38;17.92;;;9.18;;
39918;SDS011;25589;51.552;13.424;2023-02-21T06:26:04;14.25;;;8.90;;
39918;SDS011;25589;51.552;13.424;2023-02-21T06:28:29;14.88;;;9.20;;
39918;SDS011;25589;51.552;13.424;2023-02-21T06:30:55;17.25;;;9.75;;
39918;SDS011;25589;51.552;13.424;2023-02-21T06:33:21;16.73;;;9.05;;
39918;SDS011;25589;51.552;13.424;2023-02-21T06:35:47;15.02;;;8.60;;
39918;SDS011;25589;51.552;13.424;2023-02-21T06:38:12;16.83;;;9.88;;
39918;SDS011;25589;51.552;13.424;2023-02-21T06:40:38;16.70;;;9.82;;
39918;SDS011;25589;51.552;13.424;2023-02-21T06:43:04;15.32;;;8.68;;
39918;SDS011;25589;51.552;13.424;2023-02-21T06:45:29;15.93;;;9.70;;
39918;SDS011;25589;51.552;13.424;2023-02-21T06:47:55;16.15;;;9.25;;
39918;SDS011;25589;51.552;13.424;2023-02-21T06:50:20;19.45;;;10.68;;
39918;SDS011;25589;51.552;13.424;2023-02-21T06:52:46;15.27;;;9.10;;
39918;SDS011;25589;51.552;13.424;2023-02-21T06:55:11;17.73;;;9.90;;
39918;SDS011;25589;51.552;13.424;2023-02-21T06:57:37;17.80;;;9.98;;
39918;SDS011;25589;51.552;13.424;2023-02-21T07:00:03;17.33;;;9.52;;
39918;SDS011;25589;51.552;13.424;2023-02-21T07:02:30;16.85;;;9.52;;
39918;SDS011;25589;51.552;13.424;2023-02-21T07:04:56;17.23;;;9.48;;
39918;SDS011;25589;51.552;13.424;2023-02-21T07:07:22;16.42;;;9.70;;
39918;SDS011;25589;51.552;13.424;2023-02-21T07:09:47;16.52;;;9.20;;
39918;SDS011;25589;51.552;13.424;2023-02-21T07:12:13;16.25;;;9.70;;
39918;SDS011;25589;51.552;13.424;2023-02-21T07:14:38;16.40;;;9.75;;
39918;SDS011;25589;51.552;13.424;2023-02-21T07:17:04;18.35;;;10.05;;
39918;SDS011;25589;51.552;13.424;2023-02-21T07:19:29;18.02;;;10.55;;
39918;SDS011;25589;51.552;13.424;2023-02-21T07:21:55;17.60;;;10.20;;
39918;SDS011;25589;51.552;13.424;2023-02-21T07:24:20;17.88;;;9.35;;
39918;SDS011;25589;51.552;13.424;2023-02-21T07:26:46;17.83;;;9.88;;
39918;SDS011;25589;51.552;13.424;2023-02-21T07:29:12;12.50;;;8.23;;
39918;SDS011;25589;51.552;13.424;2023-02-21T07:31:37;16.40;;;9.70;;
39918;SDS011;25589;51.552;13.424;2023-02-21T07:34:03;17.63;;;9.80;;
39918;SDS011;25589;51.552;13.424;2023-02-21T07:36:29;19.00;;;10.23;;
39918;SDS011;25589;51.552;13.424;2023-02-21T07:38:55;17.08;;;9.70;;
39918;SDS011;25589;51.552;13.424;2023-02-21T07:41:21;18.98;;;9.88;;
39918;SDS011;25589;51.552;13.424;2023-02-21T07:43:46;19.33;;;10.25;;
39918;SDS011;25589;51.552;13.424;2023-02-21T07:46:13;18.52;;;10.70;;
39918;SDS011;25589;51.552;13.424;2023-02-21T07:48:40;19.63;;;10.68;;
39918;SDS011;25589;51.552;13.424;2023-02-21T07:51:06;17.35;;;10.18;;
39918;SDS011;25589;51.552;13.424;2023-02-21T07:53:32;18.05;;;10.05;;
39918;SDS011;25589;51.552;13.424;2023-02-21T07:55:58;17.88;;;10.70;;
39918;SDS011;25589;51.552;13.424;2023-02-21T07:58:24;16.83;;;10.10;;
39918;SDS011;25589;51.552;13.424;2023-02-21T08:00:50;20.25;;;11.13;;
39918;SDS011;25589;51.552;13.424;2023-02-21T08:03:16;17.25;;;10.60;;
39918;SDS011;25589;51.552;13.424;2023-02-21T08:05:42;19.35;;;11.10;;
39918;SDS011;25589;51.552;13.424;2023-02-21T08:08:08;18.42;;;10.13;;
39918;SDS011;25589;51.552;13.424;2023-02-21T08:10:34;18.40;;;9.88;;
39918;SDS011;25589;51.552;13.424;2023-02-21T08:13:00;20.88;;;11.50;;
39918;SDS011;25589;51.552;13.424;2023-02-21T08:15:25;18.83;;;10.55;;
39918;SDS011;25589;51.552;13.424;2023-02-21T08:17:51;20.13;;;10.98;;
39918;SDS011;25589;51.552;13.424;2023-02-21T08:20:17;17.95;;;10.02;;
39918;SDS011;25589;51.552;13.424;2023-02-21T08:22:43;21.50;;;11.35;;
39918;SDS011;25589;51.552;13.424;2023-02-21T08:25:09;21.50;;;12.02;;
39918;SDS011;25589;51.552;13.424;2023-02-21T08:27:39;18.75;;;11.13;;
39918;SDS011;25589;51.552;13.424;2023-02-21T08:30:06;18.42;;;10.68;;
39918;SDS011;25589;51.552;13.424;2023-02-21T08:32:33;20.45;;;10.80;;
39918;SDS011;25589;51.552;13.424;2023-02-21T08:34:59;19.05;;;11.15;;
39918;SDS011;25589;51.552;13.424;2023-02-21T08:37:25;21.58;;;12.57;;
39918;SDS011;25589;51.552;13.424;2023-02-21T08:39:57;19.98;;;11.15;;
39918;SDS011;25589;51.552;13.424;2023-02-21T08:42:23;20.67;;;11.50;;
39918;SDS011;25589;51.552;13.424;2023-02-21T08:44:49;20.70;;;11.65;;
39918;SDS011;25589;51.552;13.424;2023-02-21T08:47:15;20.10;;;10.93;;
39918;SDS011;25589;51.552;13.424;2023-02-21T08:49:47;19.85;;;11.30;;
39918;SDS011;25589;51.552;13.424;2023-02-21T08:52:13;19.88;;;11.70;;
39918;SDS011;25589;51.552;13.424;2023-02-21T08:54:40;22.30;;;12.45;;
39918;SDS011;25589;51.552;13.424;2023-02-21T08:57:06;21.75;;;11.65;;
39918;SDS011;25589;51.552;13.424;2023-02-21T08:59:32;22.30;;;10.85;;
39918;SDS011;25589;51.552;13.424;2023-02-21T09:01:59;18.83;;;10.13;;
39918;SDS011;25589;51.552;13.424;2023-02-21T09:04:24;15.75;;;9.38;;
39918;SDS011;25589;51.552;13.424;2023-02-21T09:06:53;20.40;;;11.20;;
39918;SDS011;25589;51.552;13.424;2023-02-21T09:09:20;19.02;;;11.00;;
39918;SDS011;25589;51.552;13.424;2023-02-21T09:11:46;20.23;;;10.65;;
39918;SDS011;25589;51.552;13.424;2023-02-21T09:14:13;18.67;;;10.68;;
39918;SDS011;25589;51.552;13.424;2023-02-21T09:16:40;19.45;;;11.43;;
39918;SDS011;25589;51.552;13.424;2023-02-21T09:19:06;21.38;;;11.18;;
39918;SDS011;25589;51.552;13.424;2023-02-21T09:21:32;19.25;;;10.80;;
39918;SDS011;25589;51.552;13.424;2023-02-21T09:23:58;20.08;;;11.50;;
39918;SDS011;25589;51.552;13.424;2023-02-21T09:26:24;20.02;;;10.55;;
39918;SDS011;25589;51.552;13.424;2023-02-21T09:28:50;20.73;;;11.35;;
39918;SDS011;25589;51.552;13.424;2023-02-21T09:31:17;22.58;;;11.07;;
39918;SDS011;25589;51.552;13.424;2023-02-21T09:33:43;20.20;;;10.82;;
39918;SDS011;25589;51.552;13.424;2023-02-21T09:36:09;16.67;;;9.70;;
39918;SDS011;25589;51.552;13.424;2023-02-21T09:38:35;21.50;;;10.15;;
39918;SDS011;25589;51.552;13.424;2023-02-21T09:41:04;19.92;;;10.77;;
39918;SDS011;25589;51.552;13.424;2023-02-21T09:43:32;18.30;;;10.57;;
39918;SDS011;25589;51.552;13.424;2023-02-21T09:46:09;23.42;;;11.68;;
39918;SDS011;25589;51.552;13.424;2023-02-21T09:48:39;19.17;;;9.98;;
39918;SDS011;25589;51.552;13.424;2023-02-21T09:51:06;17.73;;;10.70;;
39918;SDS011;25589;51.552;13.424;2023-02-21T09:53:35;22.02;;;10.75;;
39918;SDS011;25589;51.552;13.424;2023-02-21T09:56:05;21.30;;;11.27;;
39918;SDS011;25589;51.552;13.424;2023-02-21T09:58:38;19.08;;;10.40;;
39918;SDS011;25589;51.552;13.424;2023-02-21T10:01:11;21.13;;;11.23;;
39918;SDS011;25589;51.552;13.424;2023-02-21T10:03:43;18.85;;;9.90;;
39918;SDS011;25589;51.552;13.424;2023-02-21T10:06:22;19.48;;;10.90;;
39918;SDS011;25589;51.552;13.424;2023-02-21T10:09:02;18.52;;;9.63;;
39918;SDS011;25589;51.552;13.424;2023-02-21T10:14:26;21.77;;;12.02;;
39918;SDS011;25589;51.552;13.424;2023-02-21T10:17:25;22.73;;;12.43;;
39918;SDS011;25589;51.552;13.424;2023-02-21T10:20:00;20.30;;;10.85;;
39918;SDS011;25589;51.552;13.424;2023-02-21T10:22:32;20.20;;;10.52;;
39918;SDS011;25589;51.552;13.424;2023-02-21T10:25:05;22.50;;;12.07;;
39918;SDS011;25589;51.552;13.424;2023-02-21T10:27:47;22.08;;;11.60;;
39918;SDS011;25589;51.552;13.424;2023-02-21T10:30:19;21.50;;;10.75;;
39918;SDS011;25589;51.552;13.424;2023-02-21T10:32:53;19.90;;;10.40;;
39918;SDS011;25589;51.552;13.424;2023-02-21T10:35:19;19.65;;;10.52;;
39918;SDS011;25589;51.552;13.424;2023-02-21T10:37:51;17.88;;;10.30;;
39918;SDS011;25589;51.552;13.424;2023-02-21T10:40:28;20.65;;;10.75;;
39918;SDS011;25589;51.552;13.424;2023-02-21T10:45:57;20.65;;;9.90;;
39918;SDS011;25589;51.552;13.424;2023-02-21T10:48:33;19.75;;;10.95;;
39918;SDS011;25589;51.552;13.424;2023-02-21T10:51:07;19.38;;;9.20;;
39918;SDS011;25589;51.552;13.424;2023-02-21T10:53:36;16.92;;;8.90;;
39918;SDS011;25589;51.552;13.424;2023-02-21T10:58:31;15.25;;;8.75;;
39918;SDS011;25589;51.552;13.424;2023-02-21T11:00:57;18.10;;;8.63;;
39918;SDS011;25589;51.552;13.424;2023-02-21T11:06:35;14.68;;;8.13;;
39918;SDS011;25589;51.552;13.424;2023-02-21T11:09:16;14.52;;;8.02;;
39918;SDS011;25589;51.552;13.424;2023-02-21T11:12:15;16.42;;;8.82;;
39918;SDS011;25589;51.552;13.424;2023-02-21T11:14:42;13.18;;;8.10;;
39918;SDS011;25589;51.552;13.424;2023-02-21T11:17:11;14.38;;;8.25;;
39918;SDS011;25589;51.552;13.424;2023-02-21T11:30:33;12.55;;;6.93;;
39918;SDS011;25589;51.552;13.424;2023-02-21T11:33:04;11.80;;;6.68;;
39918;SDS011;25589;51.552;13.424;2023-02-21T11:35:47;9.80;;;5.93;;
39918;SDS011;25589;51.552;13.424;2023-02-21T11:41:03;12.18;;;6.63;;
39918;SDS011;25589;51.552;13.424;2023-02-21T11:43:44;13.98;;;7.18;;
39918;SDS011;25589;51.552;13.424;2023-02-21T11:48:53;12.32;;;6.82;;
39918;SDS011;25589;51.552;13.424;2023-02-21T11:54:17;11.47;;;6.60;;
39918;SDS011;25589;51.552;13.424;2023-02-21T11:56:50;9.95;;;6.65;;
39918;SDS011;25589;51.552;13.424;2023-02-21T11:59:34;11.40;;;6.57;;
39918;SDS011;25589;51.552;13.424;2023-02-21T12:05:14;11.68;;;6.88;;
39918;SDS011;25589;51.552;13.424;2023-02-21T12:08:01;12.43;;;7.38;;
39918;SDS011;25589;51.552;13.424;2023-02-21T12:22:02;14.27;;;7.22;;
39918;SDS011;25589;51.552;13.424;2023-02-21T12:24:55;13.15;;;7.75;;
39918;SDS011;25589;51.552;13.424;2023-02-21T12:33:20;12.38;;;6.93;;
39918;SDS011;25589;51.552;13.424;2023-02-21T12:36:00;12.48;;;7.43;;
39918;SDS011;25589;51.552;13.424;2023-02-21T12:38:36;13.73;;;7.50;;
39918;SDS011;25589;51.552;13.424;2023-02-21T12:52:06;10.32;;;6.30;;
39918;SDS011;25589;51.552;13.424;2023-02-21T13:02:54;12.82;;;7.63;;
39918;SDS011;25589;51.552;13.424;2023-02-21T13:05:59;12.43;;;7.25;;
39918;SDS011;25589;51.552;13.424;2023-02-21T13:08:31;13.88;;;8.02;;
39918;SDS011;25589;51.552;13.424;2023-02-21T13:11:08;13.40;;;7.55;;
39918;SDS011;25589;51.552;13.424;2023-02-21T13:13:42;15.23;;;7.78;;
39918;SDS011;25589;51.552;13.424;2023-02-21T13:16:09;13.63;;;7.55;;
39918;SDS011;25589;51.552;13.424;2023-02-21T13:18:44;14.13;;;8.18;;
39918;SDS011;25589;51.552;13.424;2023-02-21T13:27:52;11.40;;;7.05;;
39918;SDS011;25589;51.552;13.424;2023-02-21T13:30:36;12.18;;;7.80;;
39918;SDS011;25589;51.552;13.424;2023-02-21T13:33:04;13.63;;;7.40;;
39918;SDS011;25589;51.552;13.424;2023-02-21T13:35:36;13.73;;;8.10;;
39918;SDS011;25589;51.552;13.424;2023-02-21T13:38:07;12.88;;;7.60;;
39918;SDS011;25589;51.552;13.424;2023-02-21T13:40:37;12.63;;;7.82;;
39918;SDS011;25589;51.552;13.424;2023-02-21T13:43:12;9.88;;;6.80;;
39918;SDS011;25589;51.552;13.424;2023-02-21T13:45:45;10.45;;;6.30;;
39918;SDS011;25589;51.552;13.424;2023-02-21T13:48:21;11.50;;;7.45;;
39918;SDS011;25589;51.552;13.424;2023-02-21T13:50:51;12.50;;;7.55;;
39918;SDS011;25589;51.552;13.424;2023-02-21T13:53:22;10.80;;;7.10;;
39918;SDS011;25589;51.552;13.424;2023-02-21T14:01:22;14.20;;;7.60;;
39918;SDS011;25589;51.552;13.424;2023-02-21T14:03:51;11.85;;;7.50;;
39918;SDS011;25589;51.552;13.424;2023-02-21T14:06:27;11.77;;;7.53;;
39918;SDS011;25589;51.552;13.424;2023-02-21T14:08:58;11.23;;;6.97;;
39918;SDS011;25589;51.552;13.424;2023-02-21T14:11:28;12.30;;;7.90;;
39918;SDS011;25589;51.552;13.424;2023-02-21T14:13:57;15.70;;;8.60;;
39918;SDS011;25589;51.552;13.424;2023-02-21T14:16:33;11.60;;;7.45;;
39918;SDS011;25589;51.552;13.424;2023-02-21T14:19:10;12.65;;;8.00;;
39918;SDS011;25589;51.552;13.424;2023-02-21T14:21:41;11.40;;;7.55;;
39918;SDS011;25589;51.552;13.424;2023-02-21T14:34:38;13.27;;;9.18;;
39918;SDS011;25589;51.552;13.424;2023-02-21T14:42:42;10.73;;;8.13;;
39918;SDS011;25589;51.552;13.424;2023-02-21T14:50:41;12.98;;;8.30;;
39918;SDS011;25589;51.552;13.424;2023-02-21T14:56:24;11.95;;;7.97;;
39918;SDS011;25589;51.552;13.424;2023-02-21T14:59:06;13.77;;;9.43;;
39918;SDS011;25589;51.552;13.424;2023-02-21T15:01:59;16.17;;;9.07;;
39918;SDS011;25589;51.552;13.424;2023-02-21T15:10:06;13.88;;;9.23;;
39918;SDS011;25589;51.552;13.424;2023-02-21T15:12:38;13.43;;;8.88;;
39918;SDS011;25589;51.552;13.424;2023-02-21T15:15:18;13.63;;;9.27;;
39918;SDS011;25589;51.552;13.424;2023-02-21T15:20:39;13.68;;;9.93;;
39918;SDS011;25589;51.552;13.424;2023-02-21T15:23:19;12.38;;;9.82;;
39918;SDS011;25589;51.552;13.424;2023-02-21T15:25:55;14.57;;;9.48;;
39918;SDS011;25589;51.552;13.424;2023-02-21T15:28:29;14.93;;;9.38;;
39918;SDS011;25589;51.552;13.424;2023-02-21T15:31:03;15.38;;;10.00;;
39918;SDS011;25589;51.552;13.424;2023-02-21T15:33:33;14.02;;;10.05;;
39918;SDS011;25589;51.552;13.424;2023-02-21T15:38:39;14.57;;;9.82;;
39918;SDS011;25589;51.552;13.424;2023-02-21T15:41:33;15.75;;;9.88;;
39918;SDS011;25589;51.552;13.424;2023-02-21T15:44:01;13.73;;;9.07;;
39918;SDS011;25589;51.552;13.424;2023-02-21T15:46:39;14.48;;;9.50;;
39918;SDS011;25589;51.552;13.424;2023-02-21T15:49:13;14.10;;;10.10;;
39918;SDS011;25589;51.552;13.424;2023-02-21T15:52:01;16.63;;;9.35;;
39918;SDS011;25589;51.552;13.424;2023-02-21T15:54:29;14.02;;;9.63;;
39918;SDS011;25589;51.552;13.424;2023-02-21T15:56:59;12.30;;;8.13;;
39918;SDS011;25589;51.552;13.424;2023-02-21T15:59:30;13.80;;;9.13;;
39918;SDS011;25589;51.552;13.424;2023-02-21T16:02:10;13.55;;;8.70;;
39918;SDS011;25589;51.552;13.424;2023-02-21T16:04:42;13.00;;;9.00;;
39918;SDS011;25589;51.552;13.424;2023-02-21T16:10:04;13.88;;;8.90;;
39918;SDS011;25589;51.552;13.424;2023-02-21T16:12:36;13.23;;;7.97;;
39918;SDS011;25589;51.552;13.424;2023-02-21T16:15:26;14.38;;;9.27;;
39918;SDS011;25589;51.552;13.424;2023-02-21T16:17:51;15.00;;;8.88;;
39918;SDS011;25589;51.552;13.424;2023-02-21T16:20:32;12.70;;;8.35;;
39918;SDS011;25589;51.552;13.424;2023-02-21T16:23:12;13.27;;;8.23;;
39918;SDS011;25589;51.552;13.424;2023-02-21T16:28:22;12.70;;;8.25;;
39918;SDS011;25589;51.552;13.424;2023-02-21T16:30:48;12.75;;;7.97;;
39918;SDS011;25589;51.552;13.424;2023-02-21T16:33:14;11.60;;;8.27;;
39918;SDS011;25589;51.552;13.424;2023-02-21T16:35:39;11.20;;;7.63;;
39918;SDS011;25589;51.552;13.424;2023-02-21T16:38:05;11.80;;;7.80;;
39918;SDS011;25589;51.552;13.424;2023-02-21T16:40:34;11.63;;;7.25;;
39918;SDS011;25589;51.552;13.424;2023-02-21T16:43:01;10.75;;;7.18;;
39918;SDS011;25589;51.552;13.424;2023-02-21T16:45:28;10.77;;;7.60;;
39918;SDS011;25589;51.552;13.424;2023-02-21T16:47:55;10.50;;;7.47;;
39918;SDS011;25589;51.552;13.424;2023-02-21T16:50:36;11.27;;;7.43;;
39918;SDS011;25589;51.552;13.424;2023-02-21T16:53:03;14.05;;;7.00;;
39918;SDS011;25589;51.552;13.424;2023-02-21T16:55:29;10.65;;;7.50;;
39918;SDS011;25589;51.552;13.424;2023-02-21T16:58:00;10.18;;;6.82;;
39918;SDS011;25589;51.552;13.424;2023-02-21T17:00:28;11.65;;;6.75;;
39918;SDS011;25589;51.552;13.424;2023-02-21T17:02:55;12.35;;;7.80;;
39918;SDS011;25589;51.552;13.424;2023-02-21T17:05:21;9.68;;;6.88;;
39918;SDS011;25589;51.552;13.424;2023-02-21T17:07:46;11.95;;;7.22;;
39918;SDS011;25589;51.552;13.424;2023-02-21T17:10:14;14.27;;;7.70;;
39918;SDS011;25589;51.552;13.424;2023-02-21T17:12:40;12.27;;;7.85;;
39918;SDS011;25589;51.552;13.424;2023-02-21T17:15:05;11.55;;;7.32;;
39918;SDS011;25589;51.552;13.424;2023-02-21T17:17:31;10.90;;;7.25;;
39918;SDS011;25589;51.552;13.424;2023-02-21T17:19:57;11.40;;;7.50;;